createdAt,value
2018-08-12T00:00:03.058Z,14.90
2018-08-12T00:02:30.630Z,14.80
2018-08-12T00:04:58.193Z,14.80
2018-08-12T00:07:25.744Z,14.80
2018-08-12T00:09:53.306Z,14.80
2018-08-12T00:12:20.853Z,14.70
2018-08-12T00:14:48.419Z,14.60
2018-08-12T00:17:15.954Z,14.60
2018-08-12T00:19:43.518Z,14.70
2018-08-12T00:22:11.057Z,14.50
2018-08-12T00:24:38.591Z,14.50
2018-08-12T00:27:06.158Z,14.50
2018-08-12T00:29:33.705Z,14.60
2018-08-12T00:32:03.242Z,14.60
2018-08-12T00:34:30.841Z,14.60
2018-08-12T00:36:59.142Z,14.50
2018-08-12T00:39:26.741Z,14.50
2018-08-12T00:41:54.286Z,14.50
2018-08-12T00:44:23.809Z,14.40
2018-08-12T00:46:51.347Z,14.40
2018-08-12T00:49:18.922Z,14.40
2018-08-12T00:51:46.476Z,14.30
2018-08-12T00:54:14.015Z,14.30
2018-08-12T00:56:41.586Z,14.30
2018-08-12T00:59:09.130Z,14.40
2018-08-12T01:01:36.696Z,14.40
2018-08-12T01:04:04.265Z,14.40
2018-08-12T01:06:31.828Z,14.40
2018-08-12T01:08:59.418Z,14.30
2018-08-12T01:11:26.976Z,14.30
2018-08-12T01:13:54.543Z,14.20
2018-08-12T01:16:22.081Z,14.30
2018-08-12T01:18:49.657Z,14.20
2018-08-12T01:21:17.241Z,14.20
2018-08-12T01:23:44.800Z,14.30
2018-08-12T01:26:12.332Z,14.20
2018-08-12T01:28:39.869Z,14.20
2018-08-12T01:31:08.201Z,14.30
2018-08-12T01:33:35.741Z,14.30
2018-08-12T01:36:03.345Z,14.30
2018-08-12T01:38:30.938Z,14.20
2018-08-12T01:40:58.480Z,14.10
2018-08-12T01:43:26.052Z,14.10
2018-08-12T01:45:53.639Z,14.10
2018-08-12T01:48:23.151Z,14.10
2018-08-12T01:50:51.667Z,14.10
2018-08-12T01:53:19.200Z,14.10
2018-08-12T01:55:46.822Z,14.10
2018-08-12T01:58:14.362Z,14.20
2018-08-12T02:00:41.940Z,14.20
2018-08-12T02:03:09.479Z,14.20
2018-08-12T02:05:37.049Z,14.10
2018-08-12T02:08:04.591Z,14.10
2018-08-12T02:10:32.130Z,14.10
2018-08-12T02:13:00.463Z,14.10
2018-08-12T02:15:28.044Z,14.10
2018-08-12T02:17:55.617Z,14.10
2018-08-12T02:20:23.914Z,14.00
2018-08-12T02:22:51.475Z,14.00
2018-08-12T02:25:19.047Z,13.90
2018-08-12T02:27:48.554Z,13.90
2018-08-12T02:30:16.090Z,13.90
2018-08-12T02:32:43.663Z,13.90
2018-08-12T02:35:13.239Z,13.90
2018-08-12T02:37:42.741Z,13.80
2018-08-12T02:40:10.291Z,13.80
2018-08-12T02:42:38.627Z,13.60
2018-08-12T02:45:07.133Z,13.60
2018-08-12T02:47:34.689Z,13.60
2018-08-12T02:50:02.225Z,13.50
2018-08-12T02:52:29.786Z,13.50
2018-08-12T02:54:57.312Z,13.50
2018-08-12T02:57:24.877Z,13.30
2018-08-12T02:59:52.434Z,13.20
2018-08-12T03:02:20.928Z,13.40
2018-08-12T03:04:48.485Z,13.40
2018-08-12T03:07:17.997Z,13.40
2018-08-12T03:09:45.554Z,13.40
2018-08-12T03:12:13.095Z,13.50
2018-08-12T03:14:40.656Z,13.40
2018-08-12T03:17:08.218Z,13.50
2018-08-12T03:19:35.769Z,13.50
2018-08-12T03:22:03.315Z,13.40
2018-08-12T03:24:30.873Z,13.40
2018-08-12T03:26:58.420Z,13.40
2018-08-12T03:29:25.982Z,13.40
2018-08-12T03:31:53.519Z,13.40
2018-08-12T03:34:21.115Z,13.40
2018-08-12T03:36:48.649Z,13.40
2018-08-12T03:39:16.220Z,13.40
2018-08-12T03:41:44.721Z,13.30
2018-08-12T03:44:14.222Z,13.20
2018-08-12T03:46:41.793Z,13.20
2018-08-12T03:49:09.352Z,13.20
2018-08-12T03:51:36.880Z,13.20
2018-08-12T03:54:04.436Z,13.30
2018-08-12T03:56:32.024Z,13.30
2018-08-12T03:58:59.585Z,13.30
2018-08-12T04:01:27.122Z,13.30
2018-08-12T04:03:54.686Z,13.40
2018-08-12T04:06:22.228Z,13.30
2018-08-12T04:08:51.737Z,13.30
2018-08-12T04:11:19.269Z,13.20
2018-08-12T04:13:46.843Z,13.20
2018-08-12T04:16:14.383Z,13.10
2018-08-12T04:18:41.917Z,13.10
2018-08-12T04:21:11.430Z,13.10
2018-08-12T04:23:38.961Z,13.00
2018-08-12T04:26:07.286Z,12.90
2018-08-12T04:28:34.831Z,12.90
2018-08-12T04:31:03.351Z,12.90
2018-08-12T04:33:30.890Z,12.90
2018-08-12T04:35:59.396Z,12.90
2018-08-12T04:38:26.925Z,12.90
2018-08-12T04:40:54.485Z,12.90
2018-08-12T04:43:22.054Z,12.80
2018-08-12T04:45:49.588Z,12.90
2018-08-12T04:48:17.156Z,13.00
2018-08-12T04:50:44.743Z,13.00
2018-08-12T04:53:12.317Z,13.00
2018-08-12T04:55:39.859Z,13.00
2018-08-12T04:58:08.176Z,13.00
2018-08-12T05:00:35.754Z,13.00
2018-08-12T05:03:03.292Z,13.10
2018-08-12T05:05:30.856Z,13.10
2018-08-12T05:07:58.385Z,13.20
2018-08-12T05:10:25.966Z,13.30
2018-08-12T05:12:53.498Z,13.30
2018-08-12T05:15:21.070Z,13.40
2018-08-12T05:17:48.609Z,13.60
2018-08-12T05:20:16.174Z,13.70
2018-08-12T05:22:45.686Z,13.80
2018-08-12T05:25:13.231Z,14.00
2018-08-12T05:27:40.818Z,14.20
2018-08-12T05:30:09.330Z,14.30
2018-08-12T05:32:36.870Z,14.40
2018-08-12T05:35:04.441Z,14.50
2018-08-12T05:37:31.977Z,14.60
2018-08-12T05:39:59.551Z,14.70
2018-08-12T05:42:27.087Z,14.90
2018-08-12T05:44:54.621Z,15.00
2018-08-12T05:47:22.181Z,15.10
2018-08-12T05:49:49.713Z,15.20
2018-08-12T05:52:18.037Z,15.30
2018-08-12T05:54:45.583Z,15.30
2018-08-12T05:57:13.157Z,15.50
2018-08-12T05:59:40.693Z,15.70
2018-08-12T06:02:10.217Z,15.90
2018-08-12T06:04:37.750Z,15.90
2018-08-12T06:07:05.317Z,16.10
2018-08-12T06:09:33.811Z,16.30
2018-08-12T06:12:01.379Z,16.40
2018-08-12T06:14:28.949Z,16.60
2018-08-12T06:16:56.490Z,16.70
2018-08-12T06:19:24.057Z,16.80
2018-08-12T06:21:51.609Z,16.90
2018-08-12T06:24:19.170Z,16.90
2018-08-12T06:26:46.709Z,17.10
2018-08-12T06:29:15.209Z,17.30
2018-08-12T06:31:42.784Z,17.40
2018-08-12T06:34:12.050Z,17.70
2018-08-12T06:36:39.611Z,17.70
2018-08-12T06:39:07.144Z,17.80
2018-08-12T06:41:34.710Z,17.90
2018-08-12T06:44:03.210Z,18.10
2018-08-12T06:46:30.776Z,18.30
2018-08-12T06:48:58.315Z,18.40
2018-08-12T06:51:25.877Z,18.60
2018-08-12T06:53:53.452Z,18.70
2018-08-12T06:56:20.997Z,18.80
2018-08-12T06:58:50.510Z,19.00
2018-08-12T07:01:18.200Z,19.20
2018-08-12T07:03:46.741Z,19.40
2018-08-12T07:06:14.290Z,19.50
2018-08-12T07:08:41.830Z,19.50
2018-08-12T07:11:09.386Z,19.50
2018-08-12T07:13:36.920Z,19.20
2018-08-12T07:16:04.478Z,19.20
2018-08-12T07:18:32.038Z,19.30
2018-08-12T07:20:59.572Z,19.40
2018-08-12T07:23:27.134Z,19.60
2018-08-12T07:25:55.438Z,19.60
2018-08-12T07:28:22.997Z,19.60
2018-08-12T07:30:50.539Z,19.80
2018-08-12T07:33:18.099Z,19.80
2018-08-12T07:35:45.638Z,20.00
2018-08-12T07:38:15.133Z,20.20
2018-08-12T07:40:43.441Z,20.50
2018-08-12T07:43:10.973Z,20.40
2018-08-12T07:45:39.529Z,20.60
2018-08-12T07:48:07.071Z,20.50
2018-08-12T07:50:34.633Z,20.40
2018-08-12T07:53:02.176Z,20.60
2018-08-12T07:55:29.936Z,20.80
2018-08-12T07:57:57.473Z,21.10
2018-08-12T08:00:25.043Z,21.30
2018-08-12T08:02:52.594Z,21.50
2018-08-12T08:05:20.151Z,21.30
2018-08-12T08:07:47.714Z,21.40
2018-08-12T08:10:15.305Z,21.50
2018-08-12T08:12:42.875Z,21.70
2018-08-12T08:15:10.413Z,21.80
2018-08-12T08:17:37.966Z,21.90
2018-08-12T08:20:05.545Z,22.10
2018-08-12T08:22:34.043Z,22.20
2018-08-12T08:25:01.608Z,22.40
2018-08-12T08:27:29.140Z,22.40
2018-08-12T08:29:56.712Z,22.20
2018-08-12T08:32:24.249Z,22.40
2018-08-12T08:34:51.810Z,22.50
2018-08-12T08:37:19.345Z,22.60
2018-08-12T08:39:46.892Z,22.60
2018-08-12T08:42:14.459Z,22.70
2018-08-12T08:44:42.010Z,22.90
2018-08-12T08:47:09.577Z,22.90
2018-08-12T08:49:37.154Z,22.80
2018-08-12T08:52:04.686Z,23.00
2018-08-12T08:54:33.257Z,23.00
2018-08-12T08:57:00.827Z,23.20
2018-08-12T08:59:28.381Z,23.00
2018-08-12T09:01:55.928Z,23.20
2018-08-12T09:04:23.464Z,23.30
2018-08-12T09:06:51.025Z,23.40
2018-08-12T09:09:18.735Z,23.50
2018-08-12T09:11:46.157Z,23.50
2018-08-12T09:14:13.759Z,23.50
2018-08-12T09:16:41.302Z,23.40
2018-08-12T09:19:08.872Z,23.30
2018-08-12T09:21:37.203Z,23.50
2018-08-12T09:24:04.813Z,23.50
2018-08-12T09:26:32.318Z,23.50
2018-08-12T09:28:59.890Z,23.70
2018-08-12T09:31:27.468Z,23.90
2018-08-12T09:33:55.786Z,24.20
2018-08-12T09:36:23.343Z,24.20
2018-08-12T09:38:50.884Z,23.90
2018-08-12T09:41:18.485Z,23.90
2018-08-12T09:43:46.022Z,23.80
2018-08-12T09:46:13.590Z,24.00
2018-08-12T09:48:41.122Z,24.10
2018-08-12T09:51:08.656Z,24.30
2018-08-12T09:53:36.233Z,24.50
2018-08-12T09:56:03.794Z,24.40
2018-08-12T09:58:31.420Z,24.40
2018-08-12T10:00:58.982Z,24.50
2018-08-12T10:03:27.303Z,24.40
2018-08-12T10:05:54.834Z,24.40
2018-08-12T10:08:22.418Z,24.50
2018-08-12T10:10:49.964Z,24.70
2018-08-12T10:13:17.529Z,24.70
2018-08-12T10:15:45.089Z,24.90
2018-08-12T10:18:12.650Z,24.90
2018-08-12T10:20:40.199Z,25.10
2018-08-12T10:23:07.754Z,25.20
2018-08-12T10:25:35.313Z,25.40
2018-08-12T10:28:02.871Z,25.60
2018-08-12T10:30:30.425Z,25.60
2018-08-12T10:32:57.987Z,25.30
2018-08-12T10:35:25.517Z,25.30
2018-08-12T10:37:53.079Z,25.40
2018-08-12T10:40:20.625Z,25.70
2018-08-12T10:42:49.160Z,26.00
2018-08-12T10:45:16.695Z,26.20
2018-08-12T10:47:44.254Z,25.90
2018-08-12T10:50:12.755Z,26.10
2018-08-12T10:52:40.323Z,26.20
2018-08-12T10:55:08.437Z,26.40
2018-08-12T10:57:35.986Z,26.20
2018-08-12T11:00:03.540Z,26.50
2018-08-12T11:02:31.119Z,26.40
2018-08-12T11:04:58.685Z,26.20
2018-08-12T11:07:26.235Z,26.30
2018-08-12T11:09:53.799Z,26.50
2018-08-12T11:12:21.443Z,26.90
2018-08-12T11:14:48.953Z,26.80
2018-08-12T11:17:16.522Z,26.80
2018-08-12T11:19:44.852Z,26.60
2018-08-12T11:22:12.386Z,26.60
2018-08-12T11:24:39.941Z,26.80
2018-08-12T11:27:07.494Z,26.90
2018-08-12T11:29:35.066Z,27.20
2018-08-12T11:32:02.609Z,27.20
2018-08-12T11:34:30.232Z,26.80
2018-08-12T11:36:59.550Z,27.50
2018-08-12T11:39:27.109Z,27.50
2018-08-12T11:41:54.677Z,27.60
2018-08-12T11:44:22.230Z,27.60
2018-08-12T11:46:49.761Z,27.30
2018-08-12T11:49:17.297Z,27.30
2018-08-12T11:51:45.414Z,27.10
2018-08-12T11:54:12.943Z,27.30
2018-08-12T11:56:41.274Z,27.90
2018-08-12T11:59:08.853Z,27.80
2018-08-12T12:01:36.395Z,28.10
2018-08-12T12:04:04.675Z,28.30
2018-08-12T12:06:32.245Z,28.60
2018-08-12T12:08:59.813Z,28.70
2018-08-12T12:11:27.361Z,28.80
2018-08-12T12:13:54.927Z,28.70
2018-08-12T12:16:23.407Z,28.80
2018-08-12T12:18:51.827Z,28.40
2018-08-12T12:21:19.387Z,28.40
2018-08-12T12:23:46.950Z,28.50
2018-08-12T12:26:14.486Z,28.80
2018-08-12T12:28:42.036Z,29.30
2018-08-12T12:31:09.619Z,29.10
2018-08-12T12:33:37.157Z,29.00
2018-08-12T12:36:04.731Z,29.50
2018-08-12T12:38:32.285Z,29.20
2018-08-12T12:40:59.818Z,28.80
2018-08-12T12:43:27.377Z,29.00
2018-08-12T12:45:55.878Z,29.00
2018-08-12T12:48:23.439Z,29.00
2018-08-12T12:50:51.014Z,29.50
2018-08-12T12:53:18.572Z,29.20
2018-08-12T12:55:46.109Z,29.10
2018-08-12T12:58:13.646Z,29.50
2018-08-12T13:00:41.230Z,29.80
2018-08-12T13:03:08.778Z,30.20
2018-08-12T13:05:36.336Z,29.30
2018-08-12T13:08:03.869Z,29.50
2018-08-12T13:10:31.433Z,30.20
2018-08-12T13:12:59.925Z,30.70
2018-08-12T13:15:28.535Z,31.20
2018-08-12T13:17:56.089Z,31.10
2018-08-12T13:20:23.656Z,31.00
2018-08-12T13:22:51.229Z,31.40
2018-08-12T13:25:18.773Z,31.70
2018-08-12T13:27:46.354Z,32.10
2018-08-12T13:30:14.678Z,32.10
2018-08-12T13:32:42.237Z,32.10
2018-08-12T13:35:09.769Z,31.50
2018-08-12T13:37:37.361Z,31.50
2018-08-12T13:40:06.864Z,31.40
2018-08-12T13:42:34.399Z,31.20
2018-08-12T13:45:01.968Z,31.30
2018-08-12T13:47:30.464Z,32.50
2018-08-12T13:49:58.096Z,33.20
2018-08-12T13:52:25.625Z,33.40
2018-08-12T13:54:53.188Z,33.50
2018-08-12T13:57:20.725Z,33.50
2018-08-12T13:59:50.018Z,33.90
2018-08-12T14:02:18.317Z,34.50
2018-08-12T14:04:45.881Z,34.50
2018-08-12T14:07:13.437Z,33.50
2018-08-12T14:09:40.966Z,32.90
2018-08-12T14:12:09.297Z,33.50
2018-08-12T14:14:36.833Z,33.50
2018-08-12T14:17:04.395Z,33.50
2018-08-12T14:19:31.921Z,33.20
2018-08-12T14:21:59.481Z,33.90
2018-08-12T14:24:27.039Z,33.80
2018-08-12T14:26:54.578Z,34.70
2018-08-12T14:29:22.137Z,35.60
2018-08-12T14:31:49.694Z,35.80
2018-08-12T14:34:18.013Z,34.80
2018-08-12T14:36:45.550Z,34.80
2018-08-12T14:39:13.240Z,34.90
2018-08-12T14:41:41.769Z,35.90
2018-08-12T14:44:09.305Z,35.20
2018-08-12T14:46:37.822Z,35.10
2018-08-12T14:49:05.365Z,35.70
2018-08-12T14:51:32.947Z,36.40
2018-08-12T14:54:00.482Z,36.40
2018-08-12T14:56:29.009Z,36.10
2018-08-12T14:58:57.505Z,35.50
2018-08-12T15:01:25.069Z,35.20
2018-08-12T15:03:53.842Z,34.50
2018-08-12T15:06:21.406Z,34.90
2018-08-12T15:08:48.941Z,36.10
2018-08-12T15:11:16.497Z,35.00
2018-08-12T15:13:44.053Z,34.30
2018-08-12T15:16:11.590Z,34.50
2018-08-12T15:18:41.099Z,34.60
2018-08-12T15:21:08.665Z,35.00
2018-08-12T15:23:36.208Z,35.50
2018-08-12T15:26:03.770Z,35.10
2018-08-12T15:28:33.321Z,35.80
2018-08-12T15:31:00.871Z,36.20
2018-08-12T15:33:28.453Z,36.20
2018-08-12T15:35:57.725Z,37.10
2018-08-12T15:38:25.285Z,37.00
2018-08-12T15:40:52.821Z,37.50
2018-08-12T15:43:20.389Z,37.80
2018-08-12T15:45:48.877Z,37.50
2018-08-12T15:48:16.433Z,37.80
2018-08-12T15:50:43.969Z,38.00
2018-08-12T15:53:11.525Z,38.70
2018-08-12T15:55:39.064Z,38.70
2018-08-12T15:58:06.610Z,38.40
2018-08-12T16:00:34.170Z,38.60
2018-08-12T16:03:01.707Z,38.50
2018-08-12T16:05:29.269Z,38.60
2018-08-12T16:07:56.829Z,38.80
2018-08-12T16:10:24.412Z,39.10
2018-08-12T16:12:51.956Z,38.50
2018-08-12T16:15:19.517Z,38.30
2018-08-12T16:17:48.036Z,37.90
2018-08-12T16:20:15.575Z,37.40
2018-08-12T16:22:43.136Z,37.00
2018-08-12T16:25:10.666Z,37.00
2018-08-12T16:27:38.217Z,37.00
2018-08-12T16:30:05.772Z,36.80
2018-08-12T16:32:33.340Z,36.70
2018-08-12T16:35:00.871Z,36.60
2018-08-12T16:37:28.408Z,35.70
2018-08-12T16:39:55.982Z,34.40
2018-08-12T16:42:23.566Z,33.90
2018-08-12T16:44:51.128Z,33.30
2018-08-12T16:47:18.671Z,32.70
2018-08-12T16:49:46.513Z,32.40
2018-08-12T16:52:14.017Z,32.10
2018-08-12T16:54:41.650Z,31.80
2018-08-12T16:57:09.206Z,31.40
2018-08-12T16:59:36.788Z,31.20
2018-08-12T17:02:04.349Z,31.00
2018-08-12T17:04:32.877Z,30.80
2018-08-12T17:07:05.415Z,30.60
2018-08-12T17:09:33.993Z,30.50
2018-08-12T17:12:02.542Z,30.30
2018-08-12T17:14:30.122Z,30.30
2018-08-12T17:16:57.781Z,30.10
2018-08-12T17:19:25.416Z,30.00
2018-08-12T17:21:52.965Z,29.90
2018-08-12T17:24:20.529Z,29.80
2018-08-12T17:26:48.091Z,29.70
2018-08-12T17:29:15.676Z,29.60
2018-08-12T17:31:43.226Z,29.50
2018-08-12T17:34:10.816Z,29.40
2018-08-12T17:36:40.090Z,29.30
2018-08-12T17:39:08.586Z,29.20
2018-08-12T17:41:36.150Z,29.20
2018-08-12T17:44:03.691Z,29.10
2018-08-12T17:46:31.258Z,29.00
2018-08-12T17:48:58.841Z,28.90
2018-08-12T17:51:26.477Z,28.80
2018-08-12T17:53:54.181Z,28.70
2018-08-12T17:56:21.823Z,28.60
2018-08-12T17:58:49.449Z,28.50
2018-08-12T18:01:17.020Z,28.40
2018-08-12T18:03:44.592Z,28.00
2018-08-12T18:06:13.113Z,27.80
2018-08-12T18:08:40.677Z,27.50
2018-08-12T18:11:09.213Z,27.20
2018-08-12T18:13:36.827Z,27.00
2018-08-12T18:16:05.304Z,26.70
2018-08-12T18:18:33.039Z,26.70
2018-08-12T18:21:00.652Z,26.60
2018-08-12T18:23:28.283Z,26.50
2018-08-12T18:25:57.827Z,26.30
2018-08-12T18:28:25.465Z,26.30
2018-08-12T18:30:53.066Z,26.20
2018-08-12T18:33:20.625Z,26.10
2018-08-12T18:35:48.194Z,25.90
2018-08-12T18:38:15.772Z,25.80
2018-08-12T18:40:43.379Z,25.60
2018-08-12T18:43:11.062Z,25.50
2018-08-12T18:45:38.658Z,25.40
2018-08-12T18:48:06.301Z,25.20
2018-08-12T18:50:33.938Z,25.00
2018-08-12T18:53:01.512Z,24.90
2018-08-12T18:55:29.139Z,24.70
2018-08-12T18:57:56.702Z,24.60
2018-08-12T19:00:24.293Z,24.50
2018-08-12T19:02:51.836Z,24.50
2018-08-12T19:05:19.397Z,24.40
2018-08-12T19:07:46.976Z,24.30
2018-08-12T19:10:14.586Z,24.10
2018-08-12T19:12:42.151Z,24.00
2018-08-12T19:15:09.710Z,24.10
2018-08-12T19:17:37.365Z,23.90
2018-08-12T19:20:04.943Z,23.80
2018-08-12T19:22:32.487Z,23.70
2018-08-12T19:25:02.004Z,23.80
2018-08-12T19:27:29.598Z,23.70
2018-08-12T19:29:57.165Z,23.70
2018-08-12T19:32:25.579Z,23.60
2018-08-12T19:34:53.167Z,23.60
2018-08-12T19:37:20.734Z,23.60
2018-08-12T19:39:49.151Z,23.60
2018-08-12T19:42:16.718Z,23.50
2018-08-12T19:44:44.360Z,23.60
2018-08-12T19:47:11.980Z,23.60
2018-08-12T19:49:39.547Z,23.60
2018-08-12T19:52:07.146Z,23.50
2018-08-12T19:54:34.726Z,23.50
2018-08-12T19:57:02.341Z,23.50
2018-08-12T19:59:29.898Z,23.40
2018-08-12T20:01:57.538Z,23.30
2018-08-12T20:04:25.851Z,23.10
2018-08-12T20:06:54.395Z,23.10
2018-08-12T20:09:22.022Z,23.00
2018-08-12T20:11:49.647Z,23.00
2018-08-12T20:14:17.221Z,22.90
2018-08-12T20:16:44.805Z,22.80
2018-08-12T20:19:12.460Z,22.70
2018-08-12T20:21:40.081Z,22.70
2018-08-12T20:24:07.710Z,22.70
2018-08-12T20:26:35.328Z,22.70
2018-08-12T20:29:02.895Z,22.60
2018-08-12T20:31:31.447Z,22.60
2018-08-12T20:33:59.029Z,22.60
2018-08-12T20:36:28.577Z,22.50
2018-08-12T20:38:56.194Z,22.60
2018-08-12T20:41:23.763Z,22.50
2018-08-12T20:43:51.365Z,22.50
2018-08-12T20:46:18.907Z,22.50
2018-08-12T20:48:46.617Z,22.50
2018-08-12T20:51:14.198Z,22.40
2018-08-12T20:53:41.779Z,22.40
2018-08-12T20:56:09.371Z,22.40
2018-08-12T20:58:36.953Z,22.30
2018-08-12T21:01:05.541Z,22.20
2018-08-12T21:03:34.170Z,22.10
2018-08-12T21:06:01.759Z,22.10
2018-08-12T21:08:29.407Z,22.00
2018-08-12T21:10:57.929Z,21.80
2018-08-12T21:13:25.502Z,21.70
2018-08-12T21:15:53.053Z,21.60
2018-08-12T21:18:20.656Z,21.40
2018-08-12T21:20:48.224Z,21.20
2018-08-12T21:23:15.867Z,21.10
2018-08-12T21:25:43.456Z,21.10
2018-08-12T21:28:11.053Z,21.10
2018-08-12T21:30:38.634Z,21.00
2018-08-12T21:33:06.203Z,20.90
2018-08-12T21:35:34.758Z,20.70
2018-08-12T21:38:02.321Z,20.70
2018-08-12T21:40:30.026Z,20.70
2018-08-12T21:42:57.585Z,20.70
2018-08-12T21:45:25.167Z,20.70
2018-08-12T21:47:52.796Z,20.60
2018-08-12T21:50:20.299Z,20.50
2018-08-12T21:52:48.622Z,20.40
2018-08-12T21:55:16.149Z,20.40
2018-08-12T21:57:43.706Z,20.40
2018-08-12T22:00:11.543Z,20.30
2018-08-12T22:02:39.849Z,20.30
2018-08-12T22:05:08.218Z,20.20
2018-08-12T22:07:35.751Z,20.20
2018-08-12T22:10:04.089Z,19.90
2018-08-12T22:12:32.579Z,19.90
2018-08-12T22:15:00.141Z,19.80
2018-08-12T22:17:27.683Z,19.70
2018-08-12T22:19:55.249Z,19.70
2018-08-12T22:22:23.749Z,19.70
2018-08-12T22:24:51.319Z,19.60
2018-08-12T22:27:19.651Z,19.50
2018-08-12T22:29:47.218Z,19.50
2018-08-12T22:32:14.758Z,19.40
2018-08-12T22:34:42.310Z,19.40
2018-08-12T22:37:09.876Z,19.40
2018-08-12T22:39:37.433Z,19.40
2018-08-12T22:42:04.969Z,19.40
2018-08-12T22:44:32.497Z,19.40
2018-08-12T22:47:00.825Z,19.40
2018-08-12T22:49:28.358Z,19.40
2018-08-12T22:51:55.925Z,19.40
2018-08-12T22:54:25.433Z,19.20
2018-08-12T22:56:52.968Z,19.10
2018-08-12T22:59:20.502Z,19.10
2018-08-12T23:01:48.071Z,19.10
2018-08-12T23:04:15.605Z,19.10
2018-08-12T23:06:43.183Z,19.00
2018-08-12T23:09:10.741Z,18.90
2018-08-12T23:11:38.312Z,18.90
2018-08-12T23:14:05.844Z,18.90
2018-08-12T23:16:45.020Z,18.90
2018-08-12T23:19:12.545Z,18.90
2018-08-12T23:21:40.105Z,18.90
2018-08-12T23:24:07.646Z,18.80
2018-08-12T23:26:37.127Z,18.70
2018-08-12T23:29:04.658Z,18.60
2018-08-12T23:31:32.221Z,18.60
2018-08-12T23:33:59.752Z,18.70
2018-08-12T23:36:27.313Z,18.60
2018-08-12T23:38:54.853Z,18.60
2018-08-12T23:41:22.423Z,18.60
2018-08-12T23:43:51.930Z,18.60
2018-08-12T23:46:19.471Z,18.50
2018-08-12T23:48:47.044Z,18.50
2018-08-12T23:51:14.612Z,18.60
2018-08-12T23:53:42.178Z,18.50
2018-08-12T23:56:09.718Z,18.50
2018-08-12T23:58:37.263Z,18.50
